Time;durP1;ratioP1;P1;durP2;ratioP2;P2;SDS_P1;SDS_P2;PMS_P1;PMS_P2;Temp;Humidity;BMP_temperature;BMP_pressure;BME280_temperature;BME280_humidity;BME280_pressure;Samples;Min_cycle;Max_cycle;Signal;HPM_P1;HPM_P2
2021/12/19 00:00:45;;;;;;;50.53;24.08;;;128.80;1868.80;;;;;;5075407;28;20032;-62
2021/12/19 00:08:51;;;;;;;40.95;21.65;;;128.60;1894.40;;;;;;5088004;28;20035;-62
2021/12/19 00:11:23;;;;;;;41.70;21.85;;;128.50;1920.00;;;;;;5084718;28;20033;-61
2021/12/19 00:13:50;;;;;;;44.85;23.15;;;128.50;1920.00;;;;;;5086698;28;20043;-61
2021/12/19 00:16:17;;;;;;;41.60;21.75;;;128.50;1920.00;;;;;;5087473;28;20111;-61
2021/12/19 00:18:46;;;;;;;37.38;22.63;;;128.50;1971.20;;;;;;5094311;28;20470;-61
2021/12/19 00:21:14;;;;;;;34.22;20.40;;;128.60;2022.40;;;;;;5076590;28;20118;-62
2021/12/19 00:23:41;;;;;;;44.20;23.02;;;128.80;2022.40;;;;;;5094597;28;20107;-61
2021/12/19 00:26:08;;;;;;;37.63;21.38;;;128.90;1971.20;;;;;;5075852;28;20040;-61
2021/12/19 00:28:34;;;;;;;35.47;19.92;;;128.90;1945.60;;;;;;5082338;28;20020;-62
2021/12/19 00:31:01;;;;;;;29.98;16.52;;;128.90;1920.00;;;;;;5076243;28;20025;-62
2021/12/19 00:33:26;;;;;;;28.48;15.35;;;153.60;1920.00;;;;;;5074420;28;20028;-61
2021/12/19 00:35:53;;;;;;;25.02;14.82;;;153.60;1894.40;;;;;;5083955;28;20090;-61
2021/12/19 00:38:19;;;;;;;29.02;15.00;;;128.90;1894.40;;;;;;5087426;28;20016;-61
2021/12/19 00:40:45;;;;;;;25.85;13.65;;;128.70;1894.40;;;;;;5082213;28;20116;-60
2021/12/19 00:43:22;;;;;;;23.20;13.15;;;128.70;1920.00;;;;;;5088669;28;20472;-60
2021/12/19 00:45:49;;;;;;;24.17;12.50;;;128.70;1945.60;;;;;;5094312;28;20040;-60
2021/12/19 00:48:16;;;;;;;22.77;12.18;;;128.60;1920.00;;;;;;5085740;28;20020;-60
2021/12/19 00:50:42;;;;;;;26.88;13.20;;;128.50;1920.00;;;;;;5090810;28;20477;-60
2021/12/19 00:53:08;;;;;;;23.85;13.38;;;128.50;1920.00;;;;;;5086278;28;20067;-60
2021/12/19 00:55:34;;;;;;;24.33;14.35;;;128.50;1996.80;;;;;;5087923;28;20047;-60
2021/12/19 00:58:01;;;;;;;28.52;15.43;;;128.60;2099.20;;;;;;5084507;28;20485;-60
2021/12/19 01:00:31;;;;;;;27.10;14.32;;;128.70;2124.80;;;;;;5073636;28;20039;-60
2021/12/19 01:02:59;;;;;;;27.73;13.40;;;128.80;2022.40;;;;;;5078256;28;20036;-61
2021/12/19 01:05:31;;;;;;;20.58;12.02;;;128.80;1971.20;;;;;;5081206;28;20433;-61
2021/12/19 01:07:57;;;;;;;17.63;11.35;;;128.80;1945.60;;;;;;5073880;28;20035;-64
2021/12/19 01:10:23;;;;;;;27.63;14.38;;;128.90;1920.00;;;;;;5074003;28;20024;-63
2021/12/19 01:12:49;;;;;;;31.70;15.20;;;128.70;1920.00;;;;;;5073454;28;20485;-63
2021/12/19 01:15:17;;;;;;;28.90;13.68;;;128.60;1945.60;;;;;;5073227;28;20025;-64
2021/12/19 01:17:43;;;;;;;30.90;14.57;;;128.60;1971.20;;;;;;5073745;28;20028;-64
2021/12/19 01:20:17;;;;;;;32.75;15.65;;;128.60;1971.20;;;;;;5073725;28;20024;-62
2021/12/19 01:22:43;;;;;;;34.78;16.98;;;128.60;1945.60;;;;;;5073803;28;20039;-64
2021/12/19 01:25:09;;;;;;;38.13;17.40;;;128.50;1945.60;;;;;;5073496;28;20094;-63
2021/12/19 01:27:35;;;;;;;37.00;17.13;;;128.50;1945.60;;;;;;5073527;28;20025;-63
2021/12/19 01:30:01;;;;;;;37.40;18.58;;;128.50;1945.60;;;;;;5073766;28;20031;-61
2021/12/19 01:32:27;;;;;;;43.53;19.67;;;128.60;1996.80;;;;;;5073544;28;20036;-62
2021/12/19 01:34:52;;;;;;;43.55;20.45;;;128.70;2048.00;;;;;;5073468;28;20074;-62
2021/12/19 01:37:18;;;;;;;34.20;17.27;;;128.90;2150.40;;;;;;5073704;28;20095;-64
2021/12/19 01:39:44;;;;;;;36.20;17.63;;;153.60;2022.40;;;;;;5077677;28;20393;-61
2021/12/19 01:42:11;;;;;;;32.55;16.02;;;153.60;1996.80;;;;;;5077797;28;20027;-62
2021/12/19 01:44:37;;;;;;;33.17;16.00;;;153.60;1945.60;;;;;;5077287;28;20062;-62
2021/12/19 01:47:04;;;;;;;33.30;15.63;;;153.60;1920.00;;;;;;5077751;28;20374;-62
2021/12/19 01:49:30;;;;;;;33.55;15.18;;;153.60;1920.00;;;;;;5077182;28;20417;-62
2021/12/19 01:51:55;;;;;;;27.75;14.30;;;153.60;1920.00;;;;;;5077575;28;20056;-62
2021/12/19 01:54:21;;;;;;;25.70;12.70;;;153.60;1945.60;;;;;;5077094;28;20470;-63
2021/12/19 01:56:47;;;;;;;23.92;11.88;;;153.60;1945.60;;;;;;5077476;28;20108;-61
2021/12/19 01:59:13;;;;;;;24.75;10.93;;;153.60;1945.60;;;;;;5077259;28;20394;-61
2021/12/19 02:01:43;;;;;;;22.65;12.50;;;153.60;1920.00;;;;;;5077330;28;20021;-61
2021/12/19 02:04:11;;;;;;;29.65;12.75;;;153.60;1920.00;;;;;;5076948;28;20017;-61
2021/12/19 02:06:36;;;;;;;32.05;13.90;;;153.70;1920.00;;;;;;5076687;28;20047;-61
2021/12/19 02:09:06;;;;;;;28.83;14.00;;;153.90;1971.20;;;;;;5077074;28;20465;-61
2021/12/19 02:11:36;;;;;;;33.25;16.10;;;154.00;2022.40;;;;;;5076928;28;20482;-62
2021/12/19 02:14:03;;;;;;;40.05;19.10;;;154.00;1971.20;;;;;;5076904;28;20394;-62
2021/12/19 02:16:30;;;;;;;42.78;19.17;;;153.90;1971.20;;;;;;5076855;28;20029;-62
2021/12/19 02:18:57;;;;;;;49.33;21.42;;;154.00;1945.60;;;;;;5076924;28;20085;-62
2021/12/19 02:21:23;;;;;;;38.05;17.33;;;154.00;1920.00;;;;;;5076844;28;20025;-61
2021/12/19 02:23:48;;;;;;;43.00;17.33;;;154.00;1894.40;;;;;;5076811;28;20028;-61
2021/12/19 02:26:15;;;;;;;34.10;17.23;;;154.00;1894.40;;;;;;5076670;28;20025;-61
2021/12/19 02:28:40;;;;;;;47.40;23.17;;;153.90;1920.00;;;;;;5076537;28;20098;-61
2021/12/19 02:31:06;;;;;;;44.60;21.00;;;153.90;1920.00;;;;;;5076445;28;20417;-61
2021/12/19 02:33:36;;;;;;;42.08;20.05;;;153.80;1945.60;;;;;;5076643;28;20056;-61
2021/12/19 02:36:19;;;;;;;34.63;17.40;;;153.70;1945.60;;;;;;5076471;28;20040;-61
2021/12/19 02:49:27;;;;;;;35.83;14.35;;;154.00;2124.80;;;;;;5075446;28;20032;-61
2021/12/19 02:51:54;;;;;;;26.83;13.95;;;154.00;2022.40;;;;;;5076429;28;20029;-61
2021/12/19 02:54:21;;;;;;;25.02;13.75;;;154.00;1996.80;;;;;;5076255;28;20025;-61
2021/12/19 02:56:47;;;;;;;29.42;14.30;;;154.10;1971.20;;;;;;5076295;28;20033;-62
2021/12/19 02:59:13;;;;;;;25.95;12.38;;;154.00;1920.00;;;;;;5075964;28;20377;-61
2021/12/19 03:01:41;;;;;;;32.10;16.25;;;153.90;1920.00;;;;;;5076091;28;20037;-61
2021/12/19 03:04:07;;;;;;;32.80;14.57;;;153.70;1945.60;;;;;;5075934;28;20025;-61
2021/12/19 03:06:33;;;;;;;29.80;14.82;;;153.70;1971.20;;;;;;5076070;28;20028;-61
2021/12/19 03:09:05;;;;;;;26.23;12.93;;;153.70;1971.20;;;;;;5076058;28;20528;-61
2021/12/19 03:19:40;;;;;;;25.97;13.50;;;153.70;1996.80;;;;;;5075873;28;20548;-61
2021/12/19 03:22:05;;;;;;;29.80;14.57;;;153.80;2022.40;;;;;;5057914;28;20020;-61
2021/12/19 03:24:31;;;;;;;29.52;14.68;;;153.90;2073.60;;;;;;5075414;28;20063;-61
2021/12/19 03:26:57;;;;;;;30.08;14.13;;;154.00;2048.00;;;;;;5075480;28;20025;-61
2021/12/19 03:29:22;;;;;;;24.38;13.70;;;154.10;2022.40;;;;;;5075293;28;20020;-61
2021/12/19 03:31:48;;;;;;;24.90;14.30;;;154.20;1971.20;;;;;;5075510;28;20108;-61
2021/12/19 03:34:14;;;;;;;24.20;13.73;;;154.20;1971.20;;;;;;5075577;28;20036;-61
2021/12/19 03:36:40;;;;;;;25.88;14.05;;;154.20;1945.60;;;;;;5075402;28;20025;-61
2021/12/19 03:39:14;;;;;;;26.73;14.48;;;154.20;1920.00;;;;;;5075526;28;20033;-61
2021/12/19 03:41:41;;;;;;;23.85;13.35;;;154.00;1945.60;;;;;;5075427;28;20020;-61
2021/12/19 03:44:07;;;;;;;26.30;15.20;;;154.00;1971.20;;;;;;5074945;28;20045;-61
2021/12/19 03:46:35;;;;;;;26.52;14.98;;;154.00;1971.20;;;;;;5075346;28;20025;-61
2021/12/19 03:49:00;;;;;;;24.75;14.27;;;154.00;1971.20;;;;;;5057058;28;20060;-61
2021/12/19 03:51:26;;;;;;;24.25;13.18;;;154.00;1945.60;;;;;;5056479;28;20167;-62
2021/12/19 03:53:52;;;;;;;25.35;15.50;;;154.00;1945.60;;;;;;5075112;28;20024;-62
2021/12/19 03:56:18;;;;;;;25.27;14.77;;;154.10;1945.60;;;;;;5074758;28;20020;-63
2021/12/19 03:58:44;;;;;;;24.80;14.60;;;154.20;2022.40;;;;;;5074941;28;20024;-62
2021/12/19 04:01:10;;;;;;;23.40;14.25;;;154.30;2099.20;;;;;;5074677;28;20033;-63
2021/12/19 04:03:36;;;;;;;28.27;15.55;;;154.40;1996.80;;;;;;5074861;28;20090;-62
2021/12/19 04:06:04;;;;;;;26.40;14.75;;;154.40;1971.20;;;;;;5074562;28;20086;-62
2021/12/19 04:08:29;;;;;;;26.02;15.00;;;154.40;1945.60;;;;;;5075056;28;20029;-61
2021/12/19 04:10:55;;;;;;;25.73;16.33;;;154.40;1920.00;;;;;;5074910;28;20429;-61
2021/12/19 04:13:22;;;;;;;27.67;17.42;;;154.40;1920.00;;;;;;5074497;28;20379;-62
2021/12/19 04:15:49;;;;;;;28.58;16.73;;;154.40;1971.20;;;;;;5074732;28;20033;-61
2021/12/19 04:18:16;;;;;;;27.30;15.68;;;154.40;1971.20;;;;;;5074675;28;20095;-63
2021/12/19 04:20:41;;;;;;;23.00;14.38;;;154.40;1971.20;;;;;;5074538;28;20032;-62
2021/12/19 04:23:07;;;;;;;24.55;15.07;;;154.50;1945.60;;;;;;5074522;28;20162;-62
2021/12/19 04:25:33;;;;;;;21.35;15.43;;;154.50;1971.20;;;;;;5074530;28;20085;-62
2021/12/19 04:27:59;;;;;;;27.77;15.60;;;179.20;1971.20;;;;;;5074639;28;20029;-61
2021/12/19 04:30:25;;;;;;;24.35;14.63;;;179.20;1945.60;;;;;;5074282;28;20557;-61
2021/12/19 04:33:02;;;;;;;22.67;11.43;;;179.30;1920.00;;;;;;5074272;28;20056;-61
2021/12/19 04:35:32;;;;;;;20.92;13.75;;;179.30;1894.40;;;;;;5074316;28;20032;-61
2021/12/19 04:41:08;;;;;;;18.95;12.88;;;179.30;1945.60;;;;;;5074617;28;20039;-61
2021/12/19 05:00:13;;;;;;;;;;;179.40;1894.40;;;;;;4992868;28;20046;-61
2021/12/19 05:05:49;;;;;;;20.02;11.93;;;179.40;1894.40;;;;;;4915551;29;20140;-62
2021/12/19 05:14:08;;;;;;;18.63;11.63;;;179.50;1868.80;;;;;;4915341;29;20566;-62
2021/12/19 05:16:38;;;;;;;18.63;11.20;;;179.50;1868.80;;;;;;4915487;29;20040;-62
2021/12/19 05:19:18;;;;;;;19.58;10.93;;;179.50;1894.40;;;;;;4915925;29;20032;-62
2021/12/19 05:21:44;;;;;;;17.67;11.02;;;179.50;1868.80;;;;;;4915604;29;20048;-62
2021/12/19 05:24:32;;;;;;;20.05;11.68;;;179.40;1894.40;;;;;;4915405;29;20044;-61
2021/12/19 05:26:58;;;;;;;22.00;12.13;;;179.50;1945.60;;;;;;4915386;29;20055;-61
2021/12/19 05:29:24;;;;;;;20.23;12.52;;;179.50;1945.60;;;;;;4915351;29;20032;-61
2021/12/19 05:31:50;;;;;;;25.52;12.52;;;179.60;1920.00;;;;;;4915396;29;20061;-61
2021/12/19 05:34:16;;;;;;;19.98;11.82;;;179.60;1920.00;;;;;;4922207;29;20175;-61
2021/12/19 05:45:19;;;;;;;17.92;11.65;;;179.70;1894.40;;;;;;5073141;28;20106;-62
2021/12/19 05:47:47;;;;;;;19.85;11.65;;;179.70;1894.40;;;;;;5073601;28;20059;-61
2021/12/19 05:50:18;;;;;;;25.55;12.30;;;179.70;1868.80;;;;;;5073688;28;20363;-61
2021/12/19 05:52:46;;;;;;;19.50;12.75;;;179.70;1920.00;;;;;;5073502;28;20029;-62
2021/12/19 05:55:12;;;;;;;18.52;11.68;;;179.70;1894.40;;;;;;5073503;28;20052;-62
2021/12/19 05:57:37;;;;;;;20.25;12.07;;;179.70;1894.40;;;;;;5073137;28;20052;-62
2021/12/19 06:00:08;;;;;;;27.70;15.20;;;179.70;1894.40;;;;;;5073280;28;20024;-62
2021/12/19 06:02:35;;;;;;;28.92;16.23;;;179.70;1894.40;;;;;;5073347;28;20104;-62
2021/12/19 06:05:01;;;;;;;28.60;15.90;;;179.70;1894.40;;;;;;5073620;28;20463;-62
2021/12/19 06:07:26;;;;;;;32.72;15.18;;;179.70;1868.80;;;;;;5073316;28;20020;-62
2021/12/19 06:09:52;;;;;;;27.88;15.73;;;179.70;1868.80;;;;;;5073296;28;20029;-62
2021/12/19 06:12:18;;;;;;;21.40;13.75;;;179.60;1894.40;;;;;;5073330;28;20450;-62
2021/12/19 06:14:43;;;;;;;23.98;15.10;;;179.60;1894.40;;;;;;5073147;28;20103;-62
2021/12/19 06:17:09;;;;;;;22.75;14.48;;;179.70;1868.80;;;;;;5072776;28;20029;-62
2021/12/19 06:19:36;;;;;;;23.23;14.10;;;179.50;1817.60;;;;;;5073232;28;20021;-62
2021/12/19 06:22:04;;;;;;;20.95;13.13;;;179.50;1894.40;;;;;;5054897;28;20033;-63
2021/12/19 06:24:31;;;;;;;23.85;13.43;;;179.60;1894.40;;;;;;5075174;28;20028;-63
2021/12/19 06:26:57;;;;;;;23.67;14.43;;;179.70;1868.80;;;;;;5077233;28;20031;-62
2021/12/19 06:29:22;;;;;;;30.20;15.77;;;179.60;1868.80;;;;;;5076695;28;20029;-62
2021/12/19 06:31:48;;;;;;;36.55;18.60;;;179.70;1868.80;;;;;;5076846;28;20027;-62
2021/12/19 06:34:14;;;;;;;32.70;18.70;;;179.60;1894.40;;;;;;5076619;28;20031;-62
2021/12/19 06:36:41;;;;;;;37.63;19.75;;;179.70;1894.40;;;;;;5076656;28;20025;-62
2021/12/19 06:39:06;;;;;;;37.97;20.42;;;179.50;1843.20;;;;;;5076666;28;20024;-62
2021/12/19 06:41:35;;;;;;;40.70;22.23;;;179.50;1868.80;;;;;;5076474;28;20111;-62
2021/12/19 06:44:01;;;;;;;38.88;21.77;;;179.50;1894.40;;;;;;5076182;28;20122;-62
2021/12/19 06:46:26;;;;;;;32.80;20.08;;;179.50;1894.40;;;;;;5076099;28;20470;-64
2021/12/19 06:48:52;;;;;;;29.58;18.40;;;179.50;1868.80;;;;;;5076446;28;20028;-61
2021/12/19 06:51:18;;;;;;;32.88;18.77;;;179.50;1868.80;;;;;;5076382;28;20477;-62
2021/12/19 06:53:43;;;;;;;29.48;17.70;;;179.40;1894.40;;;;;;5076205;28;20028;-61
2021/12/19 06:56:09;;;;;;;35.20;17.70;;;179.50;1945.60;;;;;;5076111;28;20025;-62
2021/12/19 06:58:35;;;;;;;29.75;16.90;;;179.60;1920.00;;;;;;5075870;28;20032;-62
2021/12/19 07:01:00;;;;;;;28.95;18.10;;;179.60;1920.00;;;;;;5076191;28;20020;-61
2021/12/19 07:03:26;;;;;;;28.75;18.27;;;179.60;1920.00;;;;;;5076215;28;20094;-61
2021/12/19 07:05:52;;;;;;;27.73;17.17;;;179.60;1894.40;;;;;;5076242;28;20037;-62
2021/12/19 07:08:18;;;;;;;30.10;18.85;;;179.60;1894.40;;;;;;5076358;28;20021;-62
2021/12/19 07:10:44;;;;;;;35.65;19.33;;;179.60;1920.00;;;;;;5076051;28;20041;-62
2021/12/19 07:13:10;;;;;;;25.48;17.17;;;179.60;1920.00;;;;;;5076262;28;20489;-61
2021/12/19 07:15:36;;;;;;;29.00;17.08;;;179.60;1920.00;;;;;;5075995;28;20108;-62
2021/12/19 07:18:02;;;;;;;25.50;16.10;;;179.60;1920.00;;;;;;5075851;28;20528;-61
2021/12/19 07:20:29;;;;;;;28.02;16.77;;;179.70;1894.40;;;;;;5075596;28;20040;-64
2021/12/19 07:22:55;;;;;;;30.73;15.25;;;179.60;1894.40;;;;;;5075754;28;20029;-67
2021/12/19 07:25:21;;;;;;;28.13;15.98;;;179.70;1920.00;;;;;;5075846;28;20043;-61
2021/12/19 07:27:47;;;;;;;26.10;15.70;;;179.80;1894.40;;;;;;5057918;28;20029;-61
2021/12/19 07:30:13;;;;;;;27.25;16.38;;;179.70;1894.40;;;;;;5075232;28;20021;-61
2021/12/19 07:32:39;;;;;;;25.95;14.63;;;179.80;1894.40;;;;;;5075108;28;20085;-61
2021/12/19 07:35:08;;;;;;;24.42;13.90;;;179.70;1894.40;;;;;;5074994;28;20025;-61
2021/12/19 07:37:36;;;;;;;20.75;12.95;;;179.80;1894.40;;;;;;5075089;28;20466;-61
2021/12/19 07:40:39;;;;;;;22.42;13.00;;;179.80;1894.40;;;;;;5075544;28;20115;-61
2021/12/19 07:42:58;;;;;;;21.25;13.93;;;179.80;1894.40;;;;;;5072724;28;20037;-61
2021/12/19 07:45:24;;;;;;;29.13;15.18;;;179.80;1894.40;;;;;;5075645;28;20116;-61
2021/12/19 07:47:49;;;;;;;23.63;13.82;;;179.80;1894.40;;;;;;5075194;28;20466;-61
2021/12/19 07:50:16;;;;;;;24.20;15.13;;;179.80;1894.40;;;;;;5075142;28;20032;-61
2021/12/19 07:52:41;;;;;;;25.73;13.93;;;179.90;1894.40;;;;;;5075248;28;20023;-61
2021/12/19 07:55:08;;;;;;;27.60;15.05;;;179.90;1894.40;;;;;;5074907;28;20020;-61
2021/12/19 07:57:34;;;;;;;25.83;13.57;;;179.90;1894.40;;;;;;5074746;28;20031;-63
2021/12/19 08:00:00;;;;;;;24.02;14.80;;;179.90;1894.40;;;;;;5079888;28;20024;-61
2021/12/19 08:02:27;;;;;;;22.88;14.50;;;180.00;1894.40;;;;;;5083565;28;20069;-62
2021/12/19 08:04:53;;;;;;;26.38;16.13;;;180.00;1894.40;;;;;;5082939;28;20063;-62
2021/12/19 08:07:23;;;;;;;23.60;13.77;;;180.00;1894.40;;;;;;5078827;28;20044;-61
2021/12/19 08:12:34;;;;;;;21.42;13.05;;;180.00;1894.40;;;;;;5080122;28;20031;-61
2021/12/19 08:14:59;;;;;;;26.40;14.85;;;180.10;1868.80;;;;;;5074703;28;20035;-62
2021/12/19 08:17:26;;;;;;;23.83;14.52;;;180.10;1868.80;;;;;;5074633;28;20099;-61
2021/12/19 08:19:52;;;;;;;28.70;17.20;;;180.00;1894.40;;;;;;5074597;28;20447;-61
2021/12/19 08:22:19;;;;;;;30.80;16.60;;;180.00;1894.40;;;;;;5074442;28;20535;-61
2021/12/19 08:24:46;;;;;;;29.55;16.92;;;180.10;1868.80;;;;;;5074322;28;20040;-61
2021/12/19 08:27:12;;;;;;;37.15;18.52;;;180.10;1868.80;;;;;;5074750;28;20137;-62
2021/12/19 08:29:38;;;;;;;41.33;19.73;;;180.10;1868.80;;;;;;5074629;28;20040;-61
2021/12/19 08:32:04;;;;;;;41.25;19.65;;;204.80;1868.80;;;;;;5074922;28;20035;-61
2021/12/19 08:34:31;;;;;;;36.70;19.73;;;204.80;1868.80;;;;;;5074430;28;20062;-62
2021/12/19 08:36:57;;;;;;;31.63;18.27;;;204.80;1894.40;;;;;;5074449;28;20390;-61
2021/12/19 08:39:23;;;;;;;29.63;17.35;;;204.80;1868.80;;;;;;5073997;28;20029;-62
2021/12/19 08:41:49;;;;;;;25.55;17.05;;;204.80;1868.80;;;;;;5073901;28;20037;-62
2021/12/19 08:44:15;;;;;;;73.97;18.08;;;204.80;1868.80;;;;;;5073797;28;20056;-62
2021/12/19 08:46:41;;;;;;;28.90;15.48;;;204.90;1920.00;;;;;;5073668;28;20036;-62
2021/12/19 08:49:08;;;;;;;30.30;15.23;;;204.90;1894.40;;;;;;5073685;28;20032;-64
2021/12/19 08:51:35;;;;;;;25.33;15.95;;;204.90;1868.80;;;;;;5073966;28;20040;-63
2021/12/19 08:54:01;;;;;;;44.10;18.83;;;204.80;1868.80;;;;;;5074095;28;20025;-61
2021/12/19 08:56:28;;;;;;;35.13;17.45;;;205.30;2150.40;;;;;;5074189;28;20032;-62
2021/12/19 08:58:55;;;;;;;34.83;17.67;;;205.60;1996.80;;;;;;5073794;28;20119;-70
2021/12/19 09:01:21;;;;;;;40.00;21.00;;;230.50;1971.20;;;;;;5073783;28;20115;-63
2021/12/19 09:03:47;;;;;;;39.40;21.60;;;230.80;1945.60;;;;;;5073775;28;20032;-60
2021/12/19 09:06:13;;;;;;;34.25;19.33;;;230.70;1792.00;;;;;;5073680;28;20093;-62
2021/12/19 09:08:39;;;;;;;108.00;63.35;;;230.60;1766.40;;;;;;5065419;28;20024;-62
2021/12/19 09:11:05;;;;;;;62.60;34.40;;;230.40;1766.40;;;;;;5073487;28;20101;-63
2021/12/19 09:13:31;;;;;;;57.20;30.52;;;205.70;1792.00;;;;;;5073486;28;20028;-61
2021/12/19 09:15:57;;;;;;;70.57;41.22;;;205.70;1843.20;;;;;;5073406;28;20386;-67
2021/12/19 09:18:23;;;;;;;84.90;45.03;;;230.60;1868.80;;;;;;5073636;28;20024;-66
2021/12/19 09:20:49;;;;;;;66.40;43.20;;;230.80;1868.80;;;;;;5073375;28;20036;-64
2021/12/19 09:23:17;;;;;;;605.08;377.17;;;231.00;1817.60;;;;;;5073252;28;20119;-62
2021/12/19 09:25:43;;;;;;;489.67;292.63;;;230.90;1740.80;;;;;;5077727;28;20040;-61
2021/12/19 09:28:09;;;;;;;211.90;115.05;;;230.80;1740.80;;;;;;5083031;28;20020;-60
2021/12/19 09:30:35;;;;;;;131.80;72.53;;;230.60;1740.80;;;;;;5084880;28;20029;-61
2021/12/19 09:33:00;;;;;;;126.13;76.13;;;230.60;1766.40;;;;;;5081988;28;20012;-62
2021/12/19 09:35:26;;;;;;;60.10;36.63;;;230.40;1766.40;;;;;;5083782;28;20434;-61
2021/12/19 09:37:52;;;;;;;128.48;89.95;;;230.40;1766.40;;;;;;5075602;28;20378;-61
2021/12/19 09:40:24;;;;;;;55.10;34.00;;;205.70;1766.40;;;;;;5073504;28;20025;-61
2021/12/19 09:43:00;;;;;;;55.10;37.80;;;205.60;1792.00;;;;;;5073018;28;20029;-61
2021/12/19 09:45:26;;;;;;;44.25;27.42;;;205.50;1792.00;;;;;;5073134;28;20123;-60
2021/12/19 09:47:52;;;;;;;34.35;24.45;;;205.50;1792.00;;;;;;5073121;28;20447;-61
2021/12/19 09:50:18;;;;;;;30.58;19.25;;;205.50;1792.00;;;;;;5073094;28;20032;-60
2021/12/19 09:52:49;;;;;;;25.70;18.33;;;205.50;1792.00;;;;;;5074945;28;20107;-60
2021/12/19 09:55:19;;;;;;;35.45;21.25;;;205.50;1792.00;;;;;;5078447;28;20021;-61
2021/12/19 09:57:45;;;;;;;44.75;25.42;;;205.40;1792.00;;;;;;5073113;28;20016;-61
2021/12/19 10:00:12;;;;;;;68.03;33.03;;;205.40;1868.80;;;;;;5076018;28;20052;-61
2021/12/19 10:02:38;;;;;;;67.40;31.85;;;205.40;1817.60;;;;;;5077283;28;20028;-62
2021/12/19 10:05:22;;;;;;;65.30;31.80;;;205.40;1817.60;;;;;;5076948;28;20148;-63
2021/12/19 10:07:52;;;;;;;67.72;37.08;;;205.40;1817.60;;;;;;5076865;28;20028;-63
2021/12/19 10:10:27;;;;;;;61.78;34.00;;;205.40;1843.20;;;;;;5076793;28;20378;-60
2021/12/19 10:12:57;;;;;;;45.65;26.13;;;205.40;1843.20;;;;;;5076936;28;20028;-62
2021/12/19 10:15:34;;;;;;;39.95;22.90;;;205.30;1843.20;;;;;;5076471;28;20028;-59
2021/12/19 10:18:00;;;;;;;37.80;23.25;;;205.40;1843.20;;;;;;5076796;28;20032;-60
2021/12/19 10:20:26;;;;;;;40.70;21.70;;;205.40;1843.20;;;;;;5076751;28;20497;-59
2021/12/19 10:22:52;;;;;;;38.03;21.50;;;205.40;1843.20;;;;;;5076518;28;20029;-63
2021/12/19 10:25:30;;;;;;;31.70;18.98;;;205.40;1868.80;;;;;;5076425;28;20037;-63
2021/12/19 10:28:08;;;;;;;34.88;19.92;;;205.40;1868.80;;;;;;5076507;28;20025;-60
2021/12/19 10:30:37;;;;;;;31.42;18.05;;;205.40;1868.80;;;;;;5058268;28;20044;-59
2021/12/19 10:33:16;;;;;;;27.90;17.63;;;205.40;1868.80;;;;;;5076384;28;20029;-59
2021/12/19 10:35:47;;;;;;;22.88;14.70;;;205.50;1868.80;;;;;;5076596;28;20470;-62
2021/12/19 10:38:15;;;;;;;21.35;13.57;;;205.50;1868.80;;;;;;5076226;28;20079;-61
2021/12/19 10:40:57;;;;;;;24.45;17.00;;;205.50;1843.20;;;;;;5076431;28;20377;-62
2021/12/19 10:43:26;;;;;;;46.55;26.67;;;205.50;1843.20;;;;;;5076148;28;20052;-58
2021/12/19 10:45:55;;;;;;;68.28;37.38;;;205.60;1843.20;;;;;;5075956;28;20119;-62
2021/12/19 10:48:25;;;;;;;68.95;39.08;;;205.60;1868.80;;;;;;5076148;28;20074;-62
2021/12/19 10:50:54;;;;;;;54.70;33.35;;;205.60;1868.80;;;;;;5076199;28;20060;-62
2021/12/19 10:53:34;;;;;;;44.78;29.63;;;205.60;1868.80;;;;;;5076107;28;20370;-59
2021/12/19 10:56:02;;;;;;;101.07;58.10;;;205.60;1868.80;;;;;;5075979;28;20474;-61
2021/12/19 10:58:37;;;;;;;69.80;42.88;;;205.60;1868.80;;;;;;5057842;28;20569;-60
2021/12/19 11:01:14;;;;;;;39.38;25.20;;;205.70;1868.80;;;;;;5075968;28;20136;-61
2021/12/19 11:03:48;;;;;;;105.22;67.22;;;205.70;1868.80;;;;;;5075909;28;20028;-59
2021/12/19 11:06:15;;;;;;;;;;;205.70;1868.80;;;;;;5075944;28;20037;-61
2021/12/19 11:08:43;;;;;;;50.97;31.50;;;205.70;1868.80;;;;;;5075191;28;19905;-61
2021/12/19 11:11:10;;;;;;;68.43;41.33;;;205.70;1894.40;;;;;;5082116;28;20044;-59
2021/12/19 11:13:37;;;;;;;55.17;31.35;;;205.70;1868.80;;;;;;5075641;28;20017;-62
2021/12/19 11:16:03;;;;;;;31.20;17.67;;;205.70;1868.80;;;;;;5075580;28;20020;-61
2021/12/19 11:18:29;;;;;;;23.70;14.13;;;230.40;1868.80;;;;;;5075563;28;20017;-62
2021/12/19 11:20:55;;;;;;;23.10;13.43;;;230.40;1843.20;;;;;;5075363;28;20497;-60
2021/12/19 11:23:21;;;;;;;18.73;11.50;;;230.40;1817.60;;;;;;5075811;28;20025;-59
2021/12/19 11:25:46;;;;;;;20.88;12.40;;;230.40;1817.60;;;;;;5075339;28;20547;-59
2021/12/19 11:28:13;;;;;;;21.92;11.68;;;230.40;1817.60;;;;;;5075172;28;20024;-59
2021/12/19 11:30:39;;;;;;;14.65;10.38;;;230.50;1817.60;;;;;;5075585;28;20027;-59
2021/12/19 11:33:35;;;;;;;15.98;9.52;;;230.50;1817.60;;;;;;5075471;28;20025;-60
2021/12/19 11:36:02;;;;;;;24.00;11.18;;;230.50;1792.00;;;;;;5075366;28;20033;-59
2021/12/19 11:38:29;;;;;;;25.92;12.20;;;230.50;1817.60;;;;;;5071334;28;20409;-61
2021/12/19 11:40:55;;;;;;;20.08;11.13;;;230.60;1817.60;;;;;;5074339;28;20033;-61
2021/12/19 11:43:21;;;;;;;16.92;9.43;;;230.60;1792.00;;;;;;5073998;28;20056;-60
2021/12/19 11:45:57;;;;;;;16.70;8.75;;;230.60;1766.40;;;;;;5081264;28;20115;-60
2021/12/19 11:48:34;;;;;;;16.88;10.05;;;230.60;1792.00;;;;;;5081982;28;20025;-60
2021/12/19 11:51:03;;;;;;;21.17;12.23;;;230.60;1792.00;;;;;;5084119;28;20439;-61
2021/12/19 11:53:41;;;;;;;23.02;13.05;;;230.60;1792.00;;;;;;5073987;28;20048;-61
2021/12/19 11:56:16;;;;;;;35.80;17.75;;;230.70;1792.00;;;;;;5078920;28;20351;-61
2021/12/19 11:58:45;;;;;;;28.38;14.98;;;230.70;1792.00;;;;;;5081833;28;20033;-60
2021/12/19 12:01:30;;;;;;;17.20;10.23;;;230.70;1792.00;;;;;;5084438;28;20031;-60
2021/12/19 12:04:13;;;;;;;27.65;14.10;;;230.70;1792.00;;;;;;5081324;28;20051;-61
2021/12/19 12:06:53;;;;;;;27.77;14.65;;;230.70;1792.00;;;;;;5082583;28;20047;-61
2021/12/19 12:09:24;;;;;;;17.98;10.73;;;230.70;1792.00;;;;;;5087852;28;20035;-59
2021/12/19 12:12:03;;;;;;;22.58;11.93;;;230.70;1792.00;;;;;;5090378;28;20529;-61
2021/12/19 12:14:39;;;;;;;18.90;11.48;;;230.80;1792.00;;;;;;5093287;28;20028;-61
2021/12/19 12:17:11;;;;;;;17.88;10.85;;;230.70;1792.00;;;;;;5093560;28;20024;-60
2021/12/19 12:19:48;;;;;;;18.67;10.80;;;230.80;1792.00;;;;;;5082739;28;20059;-63
2021/12/19 12:22:34;;;;;;;61.15;33.55;;;230.90;1792.00;;;;;;5072961;28;20023;-61
2021/12/19 12:25:18;;;;;;;175.85;77.78;;;230.90;1792.00;;;;;;5083482;28;20127;-63
2021/12/19 12:27:54;;;;;;;199.15;87.28;;;230.90;1817.60;;;;;;5073521;28;20028;-62
2021/12/19 12:30:40;;;;;;;176.18;77.75;;;231.00;1792.00;;;;;;5072880;28;20028;-62
2021/12/19 12:33:09;;;;;;;200.63;89.45;;;231.00;1792.00;;;;;;5083394;28;20020;-63
2021/12/19 12:35:39;;;;;;;221.20;96.72;;;231.00;1843.20;;;;;;5082794;28;20029;-62
2021/12/19 12:38:06;;;;;;;119.57;56.10;;;231.10;1792.00;;;;;;5083480;28;20016;-61
2021/12/19 12:40:52;;;;;;;123.07;59.22;;;231.10;1766.40;;;;;;5082230;28;20041;-62
2021/12/19 12:43:23;;;;;;;52.78;27.50;;;231.10;1766.40;;;;;;5085257;28;20055;-61
2021/12/19 12:45:51;;;;;;;102.60;54.15;;;231.20;1792.00;;;;;;5086417;28;20506;-64
2021/12/19 12:48:29;;;;;;;66.43;40.80;;;231.10;1792.00;;;;;;5087084;28;20470;-60
2021/12/19 12:50:55;;;;;;;57.70;32.55;;;231.20;1792.00;;;;;;5085771;28;20032;-64
2021/12/19 12:53:33;;;;;;;33.22;21.98;;;231.20;1817.60;;;;;;5082694;28;20029;-63
2021/12/19 12:56:08;;;;;;;26.00;16.60;;;231.20;1792.00;;;;;;5084578;28;20031;-63
2021/12/19 12:58:40;;;;;;;34.55;20.15;;;231.20;1817.60;;;;;;5080049;28;20481;-63
2021/12/19 13:01:18;;;;;;;68.53;39.13;;;231.10;1817.60;;;;;;5071936;28;20027;-63
2021/12/19 13:04:02;;;;;;;47.28;28.42;;;231.20;1843.20;;;;;;5082365;28;20029;-62
2021/12/19 13:06:42;;;;;;;39.88;25.13;;;231.10;1817.60;;;;;;5084282;28;20036;-64
2021/12/19 13:09:22;;;;;;;44.22;25.52;;;231.20;1817.60;;;;;;5083030;28;20024;-62